WYE weather

Yengema Airport
Yengema, Eastern Province, Sierra Leone

Public forecast

Using degrees Celsius for public forecast. Weather courtesy of forecast.io.

METAR (pilot weather report)

Report is more than 6 hours old.

Closest report is Lungi International Airport, 127.6 nm (236.4 km) W. Retrieved 2019/05/18 20:00 UTC (22 hours ago):

GFLL 182000Z 03006KT 9999 TS BKN010 FEW026CB 25/23 Q1011 RMK CB-NW/NE

TAF (pilot weather forecast)

Forecast is more than 12 hours old.

Closest forecast is Lungi International Airport, 127.6 nm (236.4 km) W. Retrieved 2019/05/19 00:00 UTC (18 hours ago):

TAF GFLL 182300Z 1900/2006 33005KT 9999 BKN010 FEW027CB TEMPO 1900/1904 09006G25KT 7000 TSRA BKN009 FEW025CB BECMG 1914/1916 29010KT 9999 SCT014 TEMPO 1922/2002 33006KT 9999 BKN013 FEW027CB